sensor_id;sensor_type;location;lat;lon;timestamp;P1;durP1;ratioP1;P2;durP2;ratioP2
11220;SDS011;8517;53.546;10.104;2024-01-16T00:00:00;4.13;;;2.90;;
11220;SDS011;8517;53.546;10.104;2024-01-16T00:02:26;3.30;;;2.53;;
11220;SDS011;8517;53.546;10.104;2024-01-16T00:04:53;3.53;;;3.03;;
11220;SDS011;8517;53.546;10.104;2024-01-16T00:07:20;4.77;;;2.83;;
11220;SDS011;8517;53.546;10.104;2024-01-16T00:09:47;3.77;;;2.67;;
11220;SDS011;8517;53.546;10.104;2024-01-16T00:12:17;4.10;;;2.97;;
11220;SDS011;8517;53.546;10.104;2024-01-16T00:14:44;4.63;;;3.33;;
11220;SDS011;8517;53.546;10.104;2024-01-16T00:17:12;4.13;;;2.70;;
11220;SDS011;8517;53.546;10.104;2024-01-16T00:19:39;3.43;;;2.70;;
11220;SDS011;8517;53.546;10.104;2024-01-16T00:22:06;3.47;;;2.83;;
11220;SDS011;8517;53.546;10.104;2024-01-16T00:24:33;3.23;;;2.53;;
11220;SDS011;8517;53.546;10.104;2024-01-16T00:27:00;4.23;;;2.97;;
11220;SDS011;8517;53.546;10.104;2024-01-16T00:29:26;5.03;;;2.93;;
11220;SDS011;8517;53.546;10.104;2024-01-16T00:31:55;6.00;;;2.70;;
11220;SDS011;8517;53.546;10.104;2024-01-16T00:34:23;5.17;;;2.90;;
11220;SDS011;8517;53.546;10.104;2024-01-16T00:36:50;3.90;;;3.03;;
11220;SDS011;8517;53.546;10.104;2024-01-16T00:39:17;4.30;;;2.80;;
11220;SDS011;8517;53.546;10.104;2024-01-16T00:41:43;4.10;;;3.30;;
11220;SDS011;8517;53.546;10.104;2024-01-16T00:44:10;4.90;;;3.20;;
11220;SDS011;8517;53.546;10.104;2024-01-16T00:46:37;6.77;;;3.73;;
11220;SDS011;8517;53.546;10.104;2024-01-16T00:49:04;4.40;;;3.23;;
11220;SDS011;8517;53.546;10.104;2024-01-16T00:51:34;4.90;;;3.63;;
11220;SDS011;8517;53.546;10.104;2024-01-16T00:54:00;4.87;;;4.03;;
11220;SDS011;8517;53.546;10.104;2024-01-16T00:56:27;4.73;;;4.03;;
11220;SDS011;8517;53.546;10.104;2024-01-16T00:58:56;6.17;;;4.07;;
11220;SDS011;8517;53.546;10.104;2024-01-16T01:01:23;6.40;;;4.47;;
11220;SDS011;8517;53.546;10.104;2024-01-16T01:03:50;5.90;;;4.33;;
11220;SDS011;8517;53.546;10.104;2024-01-16T01:06:17;6.33;;;4.53;;
11220;SDS011;8517;53.546;10.104;2024-01-16T01:08:45;7.87;;;4.77;;
11220;SDS011;8517;53.546;10.104;2024-01-16T01:11:12;6.50;;;4.53;;
11220;SDS011;8517;53.546;10.104;2024-01-16T01:13:39;6.27;;;4.87;;
11220;SDS011;8517;53.546;10.104;2024-01-16T01:16:06;5.00;;;4.40;;
11220;SDS011;8517;53.546;10.104;2024-01-16T01:18:33;5.47;;;4.57;;
11220;SDS011;8517;53.546;10.104;2024-01-16T01:21:00;5.40;;;4.33;;
11220;SDS011;8517;53.546;10.104;2024-01-16T01:23:27;4.50;;;3.90;;
11220;SDS011;8517;53.546;10.104;2024-01-16T01:25:55;5.27;;;4.13;;
11220;SDS011;8517;53.546;10.104;2024-01-16T01:28:22;5.23;;;3.80;;
11220;SDS011;8517;53.546;10.104;2024-01-16T01:30:49;4.70;;;3.90;;
11220;SDS011;8517;53.546;10.104;2024-01-16T01:33:15;4.20;;;3.80;;
11220;SDS011;8517;53.546;10.104;2024-01-16T01:35:42;5.30;;;3.93;;
11220;SDS011;8517;53.546;10.104;2024-01-16T01:38:09;5.27;;;3.80;;
11220;SDS011;8517;53.546;10.104;2024-01-16T01:40:36;6.90;;;3.80;;
11220;SDS011;8517;53.546;10.104;2024-01-16T01:43:17;5.97;;;4.30;;
11220;SDS011;8517;53.546;10.104;2024-01-16T01:45:46;4.57;;;3.57;;
11220;SDS011;8517;53.546;10.104;2024-01-16T01:48:18;7.53;;;3.87;;
11220;SDS011;8517;53.546;10.104;2024-01-16T01:50:45;4.73;;;3.33;;
11220;SDS011;8517;53.546;10.104;2024-01-16T01:53:11;5.17;;;3.70;;
11220;SDS011;8517;53.546;10.104;2024-01-16T01:55:38;5.37;;;3.57;;
11220;SDS011;8517;53.546;10.104;2024-01-16T01:58:05;5.10;;;3.57;;
11220;SDS011;8517;53.546;10.104;2024-01-16T02:00:33;4.07;;;3.37;;
11220;SDS011;8517;53.546;10.104;2024-01-16T02:03:00;4.30;;;3.63;;
11220;SDS011;8517;53.546;10.104;2024-01-16T02:05:27;4.90;;;4.10;;
11220;SDS011;8517;53.546;10.104;2024-01-16T02:07:54;4.70;;;3.97;;
11220;SDS011;8517;53.546;10.104;2024-01-16T02:10:21;4.13;;;3.73;;
11220;SDS011;8517;53.546;10.104;2024-01-16T02:12:48;3.63;;;3.33;;
11220;SDS011;8517;53.546;10.104;2024-01-16T02:15:15;6.03;;;4.47;;
11220;SDS011;8517;53.546;10.104;2024-01-16T02:17:43;4.87;;;4.33;;
11220;SDS011;8517;53.546;10.104;2024-01-16T02:20:10;5.60;;;4.30;;
11220;SDS011;8517;53.546;10.104;2024-01-16T02:22:37;5.03;;;4.43;;
11220;SDS011;8517;53.546;10.104;2024-01-16T02:25:07;4.77;;;4.10;;
11220;SDS011;8517;53.546;10.104;2024-01-16T02:27:34;6.03;;;3.97;;
11220;SDS011;8517;53.546;10.104;2024-01-16T02:30:00;4.23;;;3.80;;
11220;SDS011;8517;53.546;10.104;2024-01-16T02:32:27;5.07;;;4.00;;
11220;SDS011;8517;53.546;10.104;2024-01-16T02:34:54;5.03;;;4.27;;
11220;SDS011;8517;53.546;10.104;2024-01-16T02:37:21;4.37;;;3.97;;
11220;SDS011;8517;53.546;10.104;2024-01-16T02:39:48;5.97;;;4.10;;
11220;SDS011;8517;53.546;10.104;2024-01-16T02:42:16;4.80;;;3.70;;
11220;SDS011;8517;53.546;10.104;2024-01-16T02:44:43;8.37;;;4.70;;
11220;SDS011;8517;53.546;10.104;2024-01-16T02:47:09;7.23;;;4.47;;
11220;SDS011;8517;53.546;10.104;2024-01-16T02:49:36;6.60;;;4.43;;
11220;SDS011;8517;53.546;10.104;2024-01-16T02:52:05;5.20;;;4.70;;
11220;SDS011;8517;53.546;10.104;2024-01-16T02:54:31;6.67;;;5.00;;
11220;SDS011;8517;53.546;10.104;2024-01-16T02:56:58;7.77;;;5.87;;
11220;SDS011;8517;53.546;10.104;2024-01-16T02:59:26;6.73;;;5.70;;
11220;SDS011;8517;53.546;10.104;2024-01-16T03:01:55;7.97;;;5.83;;
11220;SDS011;8517;53.546;10.104;2024-01-16T03:04:22;8.20;;;6.80;;
11220;SDS011;8517;53.546;10.104;2024-01-16T03:06:48;9.13;;;7.27;;
11220;SDS011;8517;53.546;10.104;2024-01-16T03:09:15;9.40;;;7.70;;
11220;SDS011;8517;53.546;10.104;2024-01-16T03:11:42;10.73;;;8.80;;
11220;SDS011;8517;53.546;10.104;2024-01-16T03:14:09;13.03;;;8.53;;
11220;SDS011;8517;53.546;10.104;2024-01-16T03:16:37;12.07;;;9.80;;
11220;SDS011;8517;53.546;10.104;2024-01-16T03:19:03;11.27;;;9.73;;
11220;SDS011;8517;53.546;10.104;2024-01-16T03:21:30;13.67;;;10.27;;
11220;SDS011;8517;53.546;10.104;2024-01-16T03:23:57;11.73;;;9.37;;
11220;SDS011;8517;53.546;10.104;2024-01-16T03:26:24;12.13;;;9.83;;
11220;SDS011;8517;53.546;10.104;2024-01-16T03:28:51;13.73;;;10.37;;
11220;SDS011;8517;53.546;10.104;2024-01-16T03:31:17;12.57;;;9.73;;
11220;SDS011;8517;53.546;10.104;2024-01-16T03:33:47;12.33;;;9.93;;
11220;SDS011;8517;53.546;10.104;2024-01-16T03:36:14;11.87;;;9.80;;
11220;SDS011;8517;53.546;10.104;2024-01-16T03:38:41;14.07;;;9.27;;
11220;SDS011;8517;53.546;10.104;2024-01-16T03:41:10;13.20;;;10.23;;
11220;SDS011;8517;53.546;10.104;2024-01-16T03:43:37;11.40;;;9.23;;
11220;SDS011;8517;53.546;10.104;2024-01-16T03:46:05;12.87;;;10.00;;
11220;SDS011;8517;53.546;10.104;2024-01-16T03:48:31;11.57;;;9.53;;
11220;SDS011;8517;53.546;10.104;2024-01-16T03:50:59;11.70;;;9.17;;
11220;SDS011;8517;53.546;10.104;2024-01-16T03:53:27;10.67;;;8.67;;
11220;SDS011;8517;53.546;10.104;2024-01-16T03:55:54;11.40;;;8.43;;
11220;SDS011;8517;53.546;10.104;2024-01-16T03:58:21;11.73;;;8.60;;
11220;SDS011;8517;53.546;10.104;2024-01-16T04:00:48;12.20;;;8.50;;
11220;SDS011;8517;53.546;10.104;2024-01-16T04:03:16;11.20;;;8.20;;
11220;SDS011;8517;53.546;10.104;2024-01-16T04:05:42;9.63;;;8.30;;
11220;SDS011;8517;53.546;10.104;2024-01-16T04:08:11;11.30;;;8.83;;
11220;SDS011;8517;53.546;10.104;2024-01-16T04:10:38;11.43;;;8.37;;
11220;SDS011;8517;53.546;10.104;2024-01-16T04:13:05;13.13;;;9.50;;
11220;SDS011;8517;53.546;10.104;2024-01-16T04:15:32;10.37;;;8.50;;
11220;SDS011;8517;53.546;10.104;2024-01-16T04:17:59;11.67;;;9.13;;
11220;SDS011;8517;53.546;10.104;2024-01-16T04:20:26;12.20;;;8.77;;
11220;SDS011;8517;53.546;10.104;2024-01-16T04:22:53;11.63;;;9.40;;
11220;SDS011;8517;53.546;10.104;2024-01-16T04:25:21;11.87;;;8.10;;
11220;SDS011;8517;53.546;10.104;2024-01-16T04:27:47;9.63;;;7.97;;
11220;SDS011;8517;53.546;10.104;2024-01-16T04:30:14;12.67;;;7.97;;
11220;SDS011;8517;53.546;10.104;2024-01-16T04:32:42;11.57;;;8.73;;
11220;SDS011;8517;53.546;10.104;2024-01-16T04:35:08;10.97;;;7.67;;
11220;SDS011;8517;53.546;10.104;2024-01-16T04:37:35;9.97;;;7.43;;
11220;SDS011;8517;53.546;10.104;2024-01-16T04:40:02;9.60;;;7.97;;
11220;SDS011;8517;53.546;10.104;2024-01-16T04:42:31;10.70;;;7.77;;
11220;SDS011;8517;53.546;10.104;2024-01-16T04:44:58;12.50;;;8.37;;
11220;SDS011;8517;53.546;10.104;2024-01-16T04:47:25;9.30;;;7.93;;
11220;SDS011;8517;53.546;10.104;2024-01-16T04:49:51;10.13;;;7.80;;
11220;SDS011;8517;53.546;10.104;2024-01-16T04:52:18;8.67;;;6.47;;
11220;SDS011;8517;53.546;10.104;2024-01-16T04:54:45;10.60;;;7.40;;
11220;SDS011;8517;53.546;10.104;2024-01-16T04:57:12;8.20;;;7.10;;
11220;SDS011;8517;53.546;10.104;2024-01-16T04:59:40;8.23;;;7.23;;
11220;SDS011;8517;53.546;10.104;2024-01-16T05:02:07;7.93;;;6.43;;
11220;SDS011;8517;53.546;10.104;2024-01-16T05:04:36;7.87;;;6.13;;
11220;SDS011;8517;53.546;10.104;2024-01-16T05:07:03;9.80;;;6.00;;
11220;SDS011;8517;53.546;10.104;2024-01-16T05:09:30;6.93;;;5.93;;
11220;SDS011;8517;53.546;10.104;2024-01-16T05:11:57;6.73;;;6.03;;
11220;SDS011;8517;53.546;10.104;2024-01-16T05:14:24;7.90;;;6.10;;
11220;SDS011;8517;53.546;10.104;2024-01-16T05:16:52;8.13;;;5.67;;
11220;SDS011;8517;53.546;10.104;2024-01-16T05:19:19;6.57;;;5.83;;
11220;SDS011;8517;53.546;10.104;2024-01-16T05:21:45;10.07;;;5.53;;
11220;SDS011;8517;53.546;10.104;2024-01-16T05:24:12;8.27;;;5.80;;
11220;SDS011;8517;53.546;10.104;2024-01-16T05:26:39;6.30;;;5.00;;
11220;SDS011;8517;53.546;10.104;2024-01-16T05:29:06;5.90;;;4.57;;
11220;SDS011;8517;53.546;10.104;2024-01-16T05:31:32;8.27;;;6.50;;
11220;SDS011;8517;53.546;10.104;2024-01-16T05:34:06;16.17;;;10.57;;
11220;SDS011;8517;53.546;10.104;2024-01-16T05:36:33;11.30;;;7.77;;
11220;SDS011;8517;53.546;10.104;2024-01-16T05:38:59;23.20;;;15.83;;
11220;SDS011;8517;53.546;10.104;2024-01-16T05:41:27;6.53;;;5.43;;
11220;SDS011;8517;53.546;10.104;2024-01-16T05:43:55;4.97;;;3.97;;
11220;SDS011;8517;53.546;10.104;2024-01-16T05:46:22;3.77;;;3.40;;
11220;SDS011;8517;53.546;10.104;2024-01-16T05:48:49;4.10;;;3.17;;
11220;SDS011;8517;53.546;10.104;2024-01-16T05:51:17;4.30;;;3.90;;
11220;SDS011;8517;53.546;10.104;2024-01-16T05:53:44;8.60;;;5.67;;
11220;SDS011;8517;53.546;10.104;2024-01-16T05:56:11;4.63;;;3.80;;
11220;SDS011;8517;53.546;10.104;2024-01-16T05:58:37;3.07;;;2.70;;
11220;SDS011;8517;53.546;10.104;2024-01-16T06:01:04;14.57;;;10.27;;
11220;SDS011;8517;53.546;10.104;2024-01-16T06:03:31;5.50;;;3.20;;
11220;SDS011;8517;53.546;10.104;2024-01-16T06:05:58;3.53;;;2.53;;
11220;SDS011;8517;53.546;10.104;2024-01-16T06:08:26;4.27;;;2.40;;
11220;SDS011;8517;53.546;10.104;2024-01-16T06:10:53;3.63;;;2.57;;
11220;SDS011;8517;53.546;10.104;2024-01-16T06:13:20;2.77;;;2.40;;
11220;SDS011;8517;53.546;10.104;2024-01-16T06:15:47;4.80;;;3.70;;
11220;SDS011;8517;53.546;10.104;2024-01-16T06:18:14;4.37;;;2.97;;
11220;SDS011;8517;53.546;10.104;2024-01-16T06:20:41;3.00;;;2.27;;
11220;SDS011;8517;53.546;10.104;2024-01-16T06:23:08;6.10;;;2.50;;
11220;SDS011;8517;53.546;10.104;2024-01-16T06:25:36;5.03;;;2.60;;
11220;SDS011;8517;53.546;10.104;2024-01-16T06:28:03;2.37;;;2.17;;
11220;SDS011;8517;53.546;10.104;2024-01-16T06:30:30;5.90;;;2.57;;
11220;SDS011;8517;53.546;10.104;2024-01-16T06:32:57;4.17;;;2.40;;
11220;SDS011;8517;53.546;10.104;2024-01-16T06:35:24;4.77;;;2.87;;
11220;SDS011;8517;53.546;10.104;2024-01-16T06:37:51;4.23;;;2.53;;
11220;SDS011;8517;53.546;10.104;2024-01-16T06:40:18;6.43;;;2.70;;
11220;SDS011;8517;53.546;10.104;2024-01-16T06:42:47;4.70;;;2.87;;
11220;SDS011;8517;53.546;10.104;2024-01-16T06:45:14;4.20;;;2.80;;
11220;SDS011;8517;53.546;10.104;2024-01-16T06:47:41;4.83;;;3.50;;
11220;SDS011;8517;53.546;10.104;2024-01-16T06:50:08;7.53;;;3.03;;
11220;SDS011;8517;53.546;10.104;2024-01-16T06:52:35;4.90;;;2.83;;
11220;SDS011;8517;53.546;10.104;2024-01-16T06:55:02;5.73;;;2.93;;
11220;SDS011;8517;53.546;10.104;2024-01-16T06:57:29;4.53;;;2.57;;
11220;SDS011;8517;53.546;10.104;2024-01-16T06:59:57;5.50;;;2.83;;
11220;SDS011;8517;53.546;10.104;2024-01-16T07:02:24;10.80;;;3.07;;
11220;SDS011;8517;53.546;10.104;2024-01-16T07:04:51;4.37;;;3.03;;
11220;SDS011;8517;53.546;10.104;2024-01-16T07:07:18;8.70;;;2.93;;
11220;SDS011;8517;53.546;10.104;2024-01-16T07:09:45;9.27;;;3.43;;
11220;SDS011;8517;53.546;10.104;2024-01-16T07:15:11;9.87;;;3.13;;
11220;SDS011;8517;53.546;10.104;2024-01-16T07:17:38;5.63;;;3.03;;
11220;SDS011;8517;53.546;10.104;2024-01-16T07:20:05;5.67;;;3.10;;
11220;SDS011;8517;53.546;10.104;2024-01-16T07:22:33;4.83;;;3.17;;
11220;SDS011;8517;53.546;10.104;2024-01-16T07:25:00;6.53;;;3.27;;
11220;SDS011;8517;53.546;10.104;2024-01-16T07:27:27;4.87;;;2.77;;
11220;SDS011;8517;53.546;10.104;2024-01-16T07:29:53;8.03;;;3.57;;
11220;SDS011;8517;53.546;10.104;2024-01-16T07:32:23;5.60;;;2.80;;
11220;SDS011;8517;53.546;10.104;2024-01-16T07:34:50;12.17;;;7.20;;
11220;SDS011;8517;53.546;10.104;2024-01-16T07:37:17;10.47;;;6.63;;
11220;SDS011;8517;53.546;10.104;2024-01-16T07:39:44;6.93;;;4.30;;
11220;SDS011;8517;53.546;10.104;2024-01-16T07:42:11;7.93;;;4.20;;
11220;SDS011;8517;53.546;10.104;2024-01-16T07:44:38;9.03;;;4.03;;
11220;SDS011;8517;53.546;10.104;2024-01-16T07:47:05;10.10;;;4.43;;
11220;SDS011;8517;53.546;10.104;2024-01-16T07:49:34;12.00;;;4.63;;
11220;SDS011;8517;53.546;10.104;2024-01-16T07:52:01;5.33;;;4.20;;
11220;SDS011;8517;53.546;10.104;2024-01-16T07:54:27;8.33;;;5.00;;
11220;SDS011;8517;53.546;10.104;2024-01-16T07:56:56;7.70;;;5.13;;
11220;SDS011;8517;53.546;10.104;2024-01-16T07:59:22;6.97;;;5.30;;
11220;SDS011;8517;53.546;10.104;2024-01-16T08:01:49;7.13;;;4.80;;
11220;SDS011;8517;53.546;10.104;2024-01-16T08:04:16;6.40;;;5.70;;
11220;SDS011;8517;53.546;10.104;2024-01-16T08:06:44;9.17;;;5.60;;
11220;SDS011;8517;53.546;10.104;2024-01-16T08:09:12;8.90;;;5.97;;
11220;SDS011;8517;53.546;10.104;2024-01-16T08:11:39;6.27;;;5.00;;
11220;SDS011;8517;53.546;10.104;2024-01-16T08:14:06;9.57;;;6.40;;
11220;SDS011;8517;53.546;10.104;2024-01-16T08:16:33;8.77;;;5.73;;
11220;SDS011;8517;53.546;10.104;2024-01-16T08:19:00;6.77;;;5.60;;
11220;SDS011;8517;53.546;10.104;2024-01-16T08:21:28;7.00;;;4.50;;
11220;SDS011;8517;53.546;10.104;2024-01-16T08:23:56;9.27;;;5.60;;
11220;SDS011;8517;53.546;10.104;2024-01-16T08:26:23;5.87;;;4.40;;
11220;SDS011;8517;53.546;10.104;2024-01-16T08:28:50;13.10;;;8.73;;
11220;SDS011;8517;53.546;10.104;2024-01-16T08:31:17;8.07;;;6.07;;
11220;SDS011;8517;53.546;10.104;2024-01-16T08:33:46;7.23;;;5.80;;
11220;SDS011;8517;53.546;10.104;2024-01-16T08:36:16;6.30;;;4.47;;
11220;SDS011;8517;53.546;10.104;2024-01-16T08:38:43;8.87;;;5.97;;
11220;SDS011;8517;53.546;10.104;2024-01-16T08:41:11;8.87;;;5.47;;
11220;SDS011;8517;53.546;10.104;2024-01-16T08:43:44;8.17;;;6.07;;
11220;SDS011;8517;53.546;10.104;2024-01-16T08:46:12;8.70;;;6.27;;
11220;SDS011;8517;53.546;10.104;2024-01-16T08:48:40;8.13;;;5.37;;
11220;SDS011;8517;53.546;10.104;2024-01-16T08:51:07;27.90;;;19.70;;
11220;SDS011;8517;53.546;10.104;2024-01-16T08:53:36;9.50;;;6.60;;
11220;SDS011;8517;53.546;10.104;2024-01-16T08:56:03;8.57;;;6.20;;
11220;SDS011;8517;53.546;10.104;2024-01-16T08:58:33;14.13;;;6.10;;
11220;SDS011;8517;53.546;10.104;2024-01-16T09:01:01;15.20;;;11.53;;
11220;SDS011;8517;53.546;10.104;2024-01-16T09:03:28;11.90;;;7.33;;
11220;SDS011;8517;53.546;10.104;2024-01-16T09:05:55;10.03;;;6.13;;
11220;SDS011;8517;53.546;10.104;2024-01-16T09:08:21;8.40;;;5.70;;
11220;SDS011;8517;53.546;10.104;2024-01-16T09:10:48;7.20;;;5.27;;
11220;SDS011;8517;53.546;10.104;2024-01-16T09:13:22;11.80;;;6.50;;
11220;SDS011;8517;53.546;10.104;2024-01-16T09:15:50;10.73;;;6.27;;
11220;SDS011;8517;53.546;10.104;2024-01-16T09:18:17;11.40;;;6.63;;
11220;SDS011;8517;53.546;10.104;2024-01-16T09:20:46;10.93;;;6.67;;
11220;SDS011;8517;53.546;10.104;2024-01-16T09:23:13;10.03;;;7.03;;
11220;SDS011;8517;53.546;10.104;2024-01-16T09:25:40;11.43;;;7.40;;
11220;SDS011;8517;53.546;10.104;2024-01-16T09:28:07;8.53;;;5.90;;
11220;SDS011;8517;53.546;10.104;2024-01-16T09:30:34;10.87;;;6.77;;
11220;SDS011;8517;53.546;10.104;2024-01-16T09:33:02;11.27;;;6.17;;
11220;SDS011;8517;53.546;10.104;2024-01-16T09:35:31;9.40;;;6.73;;
11220;SDS011;8517;53.546;10.104;2024-01-16T09:37:58;11.63;;;6.90;;
11220;SDS011;8517;53.546;10.104;2024-01-16T09:40:31;10.83;;;6.83;;
11220;SDS011;8517;53.546;10.104;2024-01-16T09:43:26;9.77;;;7.10;;
11220;SDS011;8517;53.546;10.104;2024-01-16T09:45:56;6.90;;;5.40;;
11220;SDS011;8517;53.546;10.104;2024-01-16T09:48:27;8.40;;;5.80;;
11220;SDS011;8517;53.546;10.104;2024-01-16T09:50:56;15.33;;;9.00;;
11220;SDS011;8517;53.546;10.104;2024-01-16T09:53:24;10.03;;;6.43;;
11220;SDS011;8517;53.546;10.104;2024-01-16T09:55:54;7.23;;;5.67;;
11220;SDS011;8517;53.546;10.104;2024-01-16T09:58:27;7.53;;;5.07;;
11220;SDS011;8517;53.546;10.104;2024-01-16T10:00:59;13.27;;;6.10;;
11220;SDS011;8517;53.546;10.104;2024-01-16T10:03:28;7.93;;;5.30;;
11220;SDS011;8517;53.546;10.104;2024-01-16T10:05:57;6.30;;;4.67;;
11220;SDS011;8517;53.546;10.104;2024-01-16T10:08:25;7.30;;;4.90;;
11220;SDS011;8517;53.546;10.104;2024-01-16T10:10:52;7.37;;;4.43;;
11220;SDS011;8517;53.546;10.104;2024-01-16T10:13:19;5.80;;;4.13;;
11220;SDS011;8517;53.546;10.104;2024-01-16T10:15:49;6.90;;;3.83;;
11220;SDS011;8517;53.546;10.104;2024-01-16T10:18:22;6.07;;;4.03;;
11220;SDS011;8517;53.546;10.104;2024-01-16T10:20:51;8.07;;;3.37;;
11220;SDS011;8517;53.546;10.104;2024-01-16T10:23:24;6.20;;;3.67;;
11220;SDS011;8517;53.546;10.104;2024-01-16T10:26:07;7.70;;;3.63;;
11220;SDS011;8517;53.546;10.104;2024-01-16T10:28:35;6.10;;;3.57;;
11220;SDS011;8517;53.546;10.104;2024-01-16T10:31:02;7.07;;;3.43;;
11220;SDS011;8517;53.546;10.104;2024-01-16T10:33:30;7.30;;;3.93;;
11220;SDS011;8517;53.546;10.104;2024-01-16T10:36:11;5.83;;;3.27;;
11220;SDS011;8517;53.546;10.104;2024-01-16T10:38:40;8.13;;;3.83;;
11220;SDS011;8517;53.546;10.104;2024-01-16T10:41:09;4.23;;;3.37;;
11220;SDS011;8517;53.546;10.104;2024-01-16T10:43:36;5.23;;;3.53;;
11220;SDS011;8517;53.546;10.104;2024-01-16T10:46:06;3.97;;;3.23;;
11220;SDS011;8517;53.546;10.104;2024-01-16T10:48:35;8.40;;;3.40;;
11220;SDS011;8517;53.546;10.104;2024-01-16T10:51:02;8.40;;;3.20;;
11220;SDS011;8517;53.546;10.104;2024-01-16T10:53:33;6.57;;;2.77;;
11220;SDS011;8517;53.546;10.104;2024-01-16T10:56:00;7.03;;;2.80;;
11220;SDS011;8517;53.546;10.104;2024-01-16T10:58:30;4.23;;;2.77;;
11220;SDS011;8517;53.546;10.104;2024-01-16T11:01:01;7.40;;;2.90;;
11220;SDS011;8517;53.546;10.104;2024-01-16T11:03:32;6.20;;;2.87;;
11220;SDS011;8517;53.546;10.104;2024-01-16T11:06:04;5.90;;;2.97;;
11220;SDS011;8517;53.546;10.104;2024-01-16T11:08:34;4.33;;;2.90;;
11220;SDS011;8517;53.546;10.104;2024-01-16T11:11:02;6.43;;;2.60;;
11220;SDS011;8517;53.546;10.104;2024-01-16T11:13:31;7.03;;;3.30;;
11220;SDS011;8517;53.546;10.104;2024-01-16T11:16:00;10.00;;;3.10;;
11220;SDS011;8517;53.546;10.104;2024-01-16T11:18:28;4.90;;;3.10;;
11220;SDS011;8517;53.546;10.104;2024-01-16T11:20:57;4.47;;;2.80;;
11220;SDS011;8517;53.546;10.104;2024-01-16T11:23:25;4.17;;;2.60;;
11220;SDS011;8517;53.546;10.104;2024-01-16T11:25:53;8.23;;;2.73;;
11220;SDS011;8517;53.546;10.104;2024-01-16T11:28:20;27.03;;;15.27;;
11220;SDS011;8517;53.546;10.104;2024-01-16T11:30:52;6.40;;;3.47;;
11220;SDS011;8517;53.546;10.104;2024-01-16T11:39:08;7.23;;;2.50;;
11220;SDS011;8517;53.546;10.104;2024-01-16T11:41:50;4.83;;;2.50;;
11220;SDS011;8517;53.546;10.104;2024-01-16T11:44:38;5.37;;;2.27;;
11220;SDS011;8517;53.546;10.104;2024-01-16T11:47:09;4.20;;;2.30;;
11220;SDS011;8517;53.546;10.104;2024-01-16T11:49:41;9.03;;;3.03;;
11220;SDS011;8517;53.546;10.104;2024-01-16T11:52:08;4.73;;;2.37;;
11220;SDS011;8517;53.546;10.104;2024-01-16T11:54:36;6.73;;;2.60;;
11220;SDS011;8517;53.546;10.104;2024-01-16T11:57:25;4.50;;;2.53;;
11220;SDS011;8517;53.546;10.104;2024-01-16T12:00:00;4.07;;;2.17;;
11220;SDS011;8517;53.546;10.104;2024-01-16T12:02:49;5.57;;;2.90;;
11220;SDS011;8517;53.546;10.104;2024-01-16T12:05:19;10.20;;;2.77;;
11220;SDS011;8517;53.546;10.104;2024-01-16T12:07:46;10.17;;;2.93;;
11220;SDS011;8517;53.546;10.104;2024-01-16T12:10:15;9.40;;;2.70;;
11220;SDS011;8517;53.546;10.104;2024-01-16T12:12:44;3.93;;;2.20;;
11220;SDS011;8517;53.546;10.104;2024-01-16T12:15:15;7.63;;;2.40;;
11220;SDS011;8517;53.546;10.104;2024-01-16T12:17:55;9.37;;;3.23;;
11220;SDS011;8517;53.546;10.104;2024-01-16T12:20:23;7.20;;;2.27;;
11220;SDS011;8517;53.546;10.104;2024-01-16T12:22:56;6.97;;;2.57;;
11220;SDS011;8517;53.546;10.104;2024-01-16T12:25:24;8.07;;;2.40;;
11220;SDS011;8517;53.546;10.104;2024-01-16T12:27:59;8.73;;;2.40;;
11220;SDS011;8517;53.546;10.104;2024-01-16T12:30:26;8.57;;;2.73;;
11220;SDS011;8517;53.546;10.104;2024-01-16T12:33:04;6.67;;;2.27;;
11220;SDS011;8517;53.546;10.104;2024-01-16T12:35:35;4.80;;;2.73;;
11220;SDS011;8517;53.546;10.104;2024-01-16T12:38:04;4.57;;;2.10;;
11220;SDS011;8517;53.546;10.104;2024-01-16T12:40:34;4.57;;;2.63;;
11220;SDS011;8517;53.546;10.104;2024-01-16T12:43:03;9.20;;;2.97;;
11220;SDS011;8517;53.546;10.104;2024-01-16T12:45:31;4.77;;;2.63;;
11220;SDS011;8517;53.546;10.104;2024-01-16T12:47:59;7.80;;;2.53;;
11220;SDS011;8517;53.546;10.104;2024-01-16T12:50:27;9.40;;;2.73;;
11220;SDS011;8517;53.546;10.104;2024-01-16T12:53:02;6.73;;;2.90;;
11220;SDS011;8517;53.546;10.104;2024-01-16T12:55:31;5.90;;;2.70;;
11220;SDS011;8517;53.546;10.104;2024-01-16T12:58:16;7.30;;;2.97;;
11220;SDS011;8517;53.546;10.104;2024-01-16T13:00:43;16.20;;;7.13;;
11220;SDS011;8517;53.546;10.104;2024-01-16T13:03:17;7.93;;;3.60;;
11220;SDS011;8517;53.546;10.104;2024-01-16T13:05:44;5.57;;;2.80;;
11220;SDS011;8517;53.546;10.104;2024-01-16T13:08:18;5.77;;;3.03;;
11220;SDS011;8517;53.546;10.104;2024-01-16T13:10:45;8.53;;;2.73;;
11220;SDS011;8517;53.546;10.104;2024-01-16T13:13:13;6.03;;;2.73;;
11220;SDS011;8517;53.546;10.104;2024-01-16T13:15:43;8.03;;;2.43;;
11220;SDS011;8517;53.546;10.104;2024-01-16T13:18:17;3.90;;;1.90;;
11220;SDS011;8517;53.546;10.104;2024-01-16T13:20:45;6.80;;;2.47;;
11220;SDS011;8517;53.546;10.104;2024-01-16T13:23:12;5.30;;;2.83;;
11220;SDS011;8517;53.546;10.104;2024-01-16T13:25:42;5.07;;;2.30;;
11220;SDS011;8517;53.546;10.104;2024-01-16T13:28:10;6.10;;;2.40;;
11220;SDS011;8517;53.546;10.104;2024-01-16T13:30:38;4.93;;;2.00;;
11220;SDS011;8517;53.546;10.104;2024-01-16T13:33:05;4.20;;;2.23;;
11220;SDS011;8517;53.546;10.104;2024-01-16T13:35:33;5.13;;;2.63;;
11220;SDS011;8517;53.546;10.104;2024-01-16T13:38:01;5.03;;;2.47;;
11220;SDS011;8517;53.546;10.104;2024-01-16T13:40:29;5.63;;;2.70;;
11220;SDS011;8517;53.546;10.104;2024-01-16T13:42:55;7.20;;;3.30;;
11220;SDS011;8517;53.546;10.104;2024-01-16T13:45:22;7.13;;;3.20;;
11220;SDS011;8517;53.546;10.104;2024-01-16T13:47:51;3.67;;;2.17;;
11220;SDS011;8517;53.546;10.104;2024-01-16T13:50:17;6.37;;;3.63;;
11220;SDS011;8517;53.546;10.104;2024-01-16T13:52:44;4.80;;;3.03;;
11220;SDS011;8517;53.546;10.104;2024-01-16T13:55:11;5.90;;;3.17;;
11220;SDS011;8517;53.546;10.104;2024-01-16T13:57:38;6.70;;;2.90;;
11220;SDS011;8517;53.546;10.104;2024-01-16T14:00:06;6.53;;;3.57;;
11220;SDS011;8517;53.546;10.104;2024-01-16T14:02:38;4.03;;;3.60;;
11220;SDS011;8517;53.546;10.104;2024-01-16T14:05:07;6.87;;;4.03;;
11220;SDS011;8517;53.546;10.104;2024-01-16T14:07:35;5.60;;;3.40;;
11220;SDS011;8517;53.546;10.104;2024-01-16T14:10:03;8.70;;;4.77;;
11220;SDS011;8517;53.546;10.104;2024-01-16T14:12:34;7.77;;;5.67;;
11220;SDS011;8517;53.546;10.104;2024-01-16T14:15:02;7.97;;;5.50;;
11220;SDS011;8517;53.546;10.104;2024-01-16T14:17:32;7.50;;;5.60;;
11220;SDS011;8517;53.546;10.104;2024-01-16T14:19:59;10.37;;;6.27;;
11220;SDS011;8517;53.546;10.104;2024-01-16T14:22:27;11.03;;;6.43;;
11220;SDS011;8517;53.546;10.104;2024-01-16T14:24:54;6.87;;;5.67;;
11220;SDS011;8517;53.546;10.104;2024-01-16T14:27:21;9.57;;;6.33;;
11220;SDS011;8517;53.546;10.104;2024-01-16T14:29:49;7.47;;;6.20;;
11220;SDS011;8517;53.546;10.104;2024-01-16T14:32:15;8.93;;;5.47;;
11220;SDS011;8517;53.546;10.104;2024-01-16T14:34:42;8.83;;;6.03;;
11220;SDS011;8517;53.546;10.104;2024-01-16T14:37:09;8.60;;;5.27;;
11220;SDS011;8517;53.546;10.104;2024-01-16T14:39:38;8.40;;;6.17;;
11220;SDS011;8517;53.546;10.104;2024-01-16T14:42:04;7.07;;;4.60;;
11220;SDS011;8517;53.546;10.104;2024-01-16T14:44:32;12.30;;;6.13;;
11220;SDS011;8517;53.546;10.104;2024-01-16T14:46:59;7.30;;;5.80;;
11220;SDS011;8517;53.546;10.104;2024-01-16T14:49:26;9.73;;;5.30;;
11220;SDS011;8517;53.546;10.104;2024-01-16T14:51:56;9.37;;;5.27;;
11220;SDS011;8517;53.546;10.104;2024-01-16T14:54:24;10.60;;;5.60;;
11220;SDS011;8517;53.546;10.104;2024-01-16T14:56:56;9.10;;;5.40;;
11220;SDS011;8517;53.546;10.104;2024-01-16T14:59:24;7.67;;;4.87;;